Time;durP1;ratioP1;P1;durP2;ratioP2;P2;SDS_P1;SDS_P2;PMS_P1;PMS_P2;Temp;Humidity;BMP_temperature;BMP_pressure;BME280_temperature;BME280_humidity;BME280_pressure;Samples;Min_cycle;Max_cycle;Signal;HPM_P1;HPM_P2
2020/12/26 00:02:12;;;;;;;4.40;3.50;;;6.90;99.90;;;;;;6124544;23;20742;-86
2020/12/26 00:04:38;;;;;;;7.45;3.10;;;6.90;99.90;;;;;;6098481;23;20219;-86
2020/12/26 00:07:04;;;;;;;6.60;3.20;;;6.90;99.90;;;;;;6098851;23;20155;-87
2020/12/26 00:09:33;;;;;;;2.70;2.50;;;6.90;99.90;;;;;;6098076;23;20836;-86
2020/12/26 00:11:59;;;;;;;4.47;4.07;;;6.80;99.90;;;;;;6098711;23;20230;-86
2020/12/26 00:14:28;;;;;;;8.80;4.40;;;6.80;99.90;;;;;;6124771;23;20201;-86
2020/12/26 00:16:57;;;;;;;6.18;3.85;;;6.80;99.90;;;;;;6074733;23;20624;-86
2020/12/26 00:19:34;;;;;;;7.05;3.97;;;6.80;99.90;;;;;;6101430;23;20175;-86
2020/12/26 00:22:06;;;;;;;7.90;4.50;;;6.80;99.90;;;;;;6124228;23;20135;-86
2020/12/26 00:24:32;;;;;;;6.10;3.75;;;6.80;99.90;;;;;;6098348;23;20135;-86
2020/12/26 00:26:59;;;;;;;10.60;5.03;;;6.80;99.90;;;;;;6098650;23;20763;-86
2020/12/26 00:29:32;;;;;;;5.65;3.70;;;6.80;99.90;;;;;;6123581;23;20254;-86
2020/12/26 00:32:31;;;;;;;6.25;3.83;;;6.80;99.90;;;;;;6122985;23;20157;-86
2020/12/26 00:34:59;;;;;;;4.90;4.45;;;6.80;99.90;;;;;;6074250;23;20173;-86
2020/12/26 00:37:35;;;;;;;5.13;3.80;;;6.80;99.90;;;;;;6123966;23;20182;-86
2020/12/26 00:40:04;;;;;;;7.15;3.85;;;6.80;99.90;;;;;;6124422;23;20249;-86
2020/12/26 00:42:34;;;;;;;4.00;3.50;;;6.80;99.90;;;;;;6098139;23;20148;-86
2020/12/26 00:45:20;;;;;;;4.32;3.72;;;6.80;99.90;;;;;;6098632;23;20148;-86
2020/12/26 00:47:50;;;;;;;5.80;3.55;;;6.80;99.90;;;;;;6099094;23;20169;-85
2020/12/26 00:50:18;;;;;;;4.18;3.47;;;6.80;99.90;;;;;;6105213;23;20147;-87
2020/12/26 00:52:44;;;;;;;6.78;4.18;;;6.80;99.90;;;;;;6117039;23;20473;-86
2020/12/26 00:55:17;;;;;;;6.95;4.40;;;6.80;99.90;;;;;;6092612;23;20151;-86
2020/12/26 00:57:43;;;;;;;4.55;4.15;;;6.80;99.90;;;;;;6109580;23;20174;-86
2020/12/26 01:00:11;;;;;;;4.57;4.13;;;6.70;99.90;;;;;;6123138;23;20167;-86
2020/12/26 01:02:52;;;;;;;4.65;3.42;;;6.80;99.90;;;;;;6098664;23;20127;-86
2020/12/26 01:05:31;;;;;;;12.88;5.28;;;6.80;99.90;;;;;;6098585;23;20161;-86
2020/12/26 01:08:05;;;;;;;4.63;3.85;;;6.80;99.90;;;;;;6123475;23;20139;-86
2020/12/26 01:10:33;;;;;;;6.68;4.70;;;6.80;99.90;;;;;;6122247;23;20131;-86
2020/12/26 01:13:17;;;;;;;10.23;5.10;;;6.80;99.90;;;;;;6124037;23;20202;-86
2020/12/26 01:16:12;;;;;;;4.75;4.22;;;6.70;99.90;;;;;;6101581;23;20539;-86
2020/12/26 01:18:49;;;;;;;6.28;5.10;;;6.70;99.90;;;;;;6122656;23;20167;-86
2020/12/26 01:21:18;;;;;;;6.50;5.70;;;6.70;99.90;;;;;;6073583;23;20161;-86
2020/12/26 01:23:53;;;;;;;6.32;5.38;;;6.70;99.90;;;;;;6073265;23;20542;-86
2020/12/26 01:26:24;;;;;;;6.22;5.63;;;6.70;99.90;;;;;;6098549;23;20189;-86
2020/12/26 01:28:50;;;;;;;6.90;6.30;;;6.70;99.90;;;;;;6123633;23;20878;-86
2020/12/26 01:31:24;;;;;;;7.10;5.85;;;6.70;99.90;;;;;;6098567;23;20151;-86
2020/12/26 01:33:51;;;;;;;8.30;7.13;;;6.70;99.90;;;;;;6102158;23;20602;-85
2020/12/26 01:36:26;;;;;;;7.88;6.65;;;6.70;99.90;;;;;;6123734;23;20155;-85
2020/12/26 01:38:53;;;;;;;9.23;6.53;;;6.70;99.90;;;;;;6097129;23;20229;-86
2020/12/26 01:41:18;;;;;;;8.65;7.05;;;6.70;99.90;;;;;;6097792;23;20539;-86
2020/12/26 01:44:13;;;;;;;6.68;5.80;;;6.70;99.90;;;;;;6098046;23;20147;-86
2020/12/26 01:46:39;;;;;;;6.72;6.00;;;6.70;99.90;;;;;;6119187;23;20165;-84
2020/12/26 01:49:05;;;;;;;10.70;6.63;;;6.70;99.90;;;;;;6123165;23;20167;-84
2020/12/26 01:51:31;;;;;;;9.77;6.37;;;6.70;99.90;;;;;;6097831;23;20601;-85
2020/12/26 01:53:58;;;;;;;8.10;6.80;;;6.70;99.90;;;;;;6123868;23;20534;-85
2020/12/26 01:56:26;;;;;;;8.35;7.15;;;6.70;99.90;;;;;;6123930;23;20578;-84
2020/12/26 01:58:52;;;;;;;8.80;6.45;;;6.70;99.90;;;;;;6123524;23;20490;-84
2020/12/26 02:01:28;;;;;;;6.80;6.20;;;6.70;99.90;;;;;;6097694;23;20150;-84
2020/12/26 02:03:54;;;;;;;7.20;6.50;;;6.70;99.90;;;;;;6124103;23;21028;-85
2020/12/26 02:06:19;;;;;;;6.53;6.03;;;6.70;99.90;;;;;;6123720;23;20157;-85
2020/12/26 02:08:45;;;;;;;8.13;5.90;;;6.70;99.90;;;;;;6123899;23;20185;-84
2020/12/26 02:11:11;;;;;;;8.40;6.70;;;6.70;99.90;;;;;;6128604;23;20150;-84
2020/12/26 02:13:37;;;;;;;7.50;6.70;;;6.70;99.90;;;;;;6100133;23;20626;-84
2020/12/26 02:16:07;;;;;;;7.00;6.27;;;6.60;99.90;;;;;;6099425;23;20506;-84
2020/12/26 02:18:33;;;;;;;10.75;6.03;;;6.60;99.90;;;;;;6098881;23;20229;-84
2020/12/26 02:21:00;;;;;;;7.45;6.43;;;6.60;99.90;;;;;;6099316;23;20206;-84
2020/12/26 02:23:28;;;;;;;5.68;5.18;;;6.60;99.90;;;;;;6076520;23;20155;-84
2020/12/26 02:25:57;;;;;;;7.72;6.93;;;6.60;99.90;;;;;;6100496;23;20159;-84
2020/12/26 02:28:24;;;;;;;10.25;6.97;;;6.60;99.90;;;;;;6100003;23;20167;-84
2020/12/26 02:30:51;;;;;;;7.20;6.65;;;6.60;99.90;;;;;;6124734;23;20159;-84
2020/12/26 02:33:17;;;;;;;7.40;6.65;;;6.60;99.90;;;;;;6098548;23;20213;-84
2020/12/26 02:35:49;;;;;;;6.83;6.17;;;6.50;99.90;;;;;;6124640;23;20155;-84
2020/12/26 02:38:17;;;;;;;8.63;6.70;;;6.50;99.90;;;;;;6099997;23;20557;-84
2020/12/26 02:40:46;;;;;;;7.90;6.90;;;6.50;99.90;;;;;;6126315;23;20132;-84
2020/12/26 02:43:18;;;;;;;8.82;6.95;;;6.50;99.90;;;;;;6100564;23;20147;-84
2020/12/26 02:45:45;;;;;;;8.30;6.20;;;6.40;99.90;;;;;;6100102;23;20154;-84
2020/12/26 02:48:10;;;;;;;8.40;6.13;;;6.40;99.90;;;;;;6130594;23;20197;-84
2020/12/26 02:50:36;;;;;;;8.03;6.03;;;6.40;99.90;;;;;;6102262;23;20147;-84
2020/12/26 02:53:02;;;;;;;8.77;5.73;;;6.40;99.90;;;;;;6102871;23;20522;-85
2020/12/26 02:55:28;;;;;;;6.50;5.83;;;6.40;99.90;;;;;;6128935;23;20222;-85
2020/12/26 02:57:54;;;;;;;7.40;6.47;;;6.40;99.90;;;;;;6101111;23;20571;-84
2020/12/26 03:00:20;;;;;;;11.20;6.90;;;6.40;99.90;;;;;;6099556;23;20206;-85
2020/12/26 03:02:45;;;;;;;9.33;6.37;;;6.40;99.90;;;;;;6126233;23;20167;-84
2020/12/26 03:05:11;;;;;;;6.40;5.80;;;6.40;99.90;;;;;;6101267;23;20904;-85
2020/12/26 03:07:37;;;;;;;9.20;6.47;;;6.40;99.90;;;;;;6127802;23;20155;-85
2020/12/26 03:10:04;;;;;;;8.77;7.90;;;6.40;99.90;;;;;;6129422;23;20555;-85
2020/12/26 03:12:29;;;;;;;8.27;6.82;;;6.40;99.90;;;;;;6103647;23;20902;-85
2020/12/26 03:14:55;;;;;;;9.00;6.53;;;6.50;99.90;;;;;;6128269;23;20151;-83
2020/12/26 03:17:21;;;;;;;6.80;6.10;;;6.50;99.90;;;;;;6134582;23;20654;-85
2020/12/26 03:19:47;;;;;;;7.90;6.10;;;6.50;99.90;;;;;;6113572;23;20567;-85
2020/12/26 03:22:15;;;;;;;8.30;7.57;;;6.50;99.90;;;;;;6110101;23;20622;-85
2020/12/26 03:24:44;;;;;;;7.38;5.40;;;6.50;99.90;;;;;;6112375;23;20123;-85
2020/12/26 03:27:10;;;;;;;8.80;6.37;;;6.60;99.90;;;;;;6075330;23;20162;-84
2020/12/26 03:29:39;;;;;;;12.52;6.40;;;6.60;99.90;;;;;;6074012;23;21004;-84
2020/12/26 03:32:05;;;;;;;7.38;6.68;;;6.60;99.90;;;;;;6099239;23;20202;-85
2020/12/26 03:34:31;;;;;;;7.97;6.85;;;6.60;99.90;;;;;;6075003;23;20218;-84
2020/12/26 03:36:57;;;;;;;8.98;7.20;;;6.60;99.90;;;;;;6098456;23;20625;-84
2020/12/26 03:39:23;;;;;;;8.33;7.13;;;6.60;99.90;;;;;;6097746;23;20217;-84
2020/12/26 03:41:50;;;;;;;9.82;6.90;;;6.60;99.90;;;;;;6097985;23;20550;-84
2020/12/26 03:44:16;;;;;;;6.50;5.90;;;6.60;99.90;;;;;;6098919;23;20143;-84
2020/12/26 03:46:41;;;;;;;6.80;6.10;;;6.70;99.90;;;;;;6098672;23;20559;-84
2020/12/26 03:49:07;;;;;;;7.23;6.50;;;6.70;99.90;;;;;;6097842;23;20175;-84
2020/12/26 03:51:33;;;;;;;8.30;6.27;;;6.70;99.90;;;;;;6123739;23;20547;-84
2020/12/26 03:53:59;;;;;;;7.60;6.80;;;6.70;99.90;;;;;;6124150;23;20175;-85
2020/12/26 03:56:25;;;;;;;7.90;6.55;;;6.70;99.90;;;;;;6098147;23;21142;-84
2020/12/26 03:58:51;;;;;;;10.60;7.20;;;6.70;99.90;;;;;;6097017;23;20163;-84
2020/12/26 04:01:17;;;;;;;9.80;7.37;;;6.70;99.90;;;;;;6076931;23;20527;-84
2020/12/26 04:03:43;;;;;;;7.23;6.53;;;6.70;99.90;;;;;;6101230;23;20511;-85
2020/12/26 04:06:09;;;;;;;7.40;5.97;;;6.70;99.90;;;;;;6050567;23;21308;-84
2020/12/26 04:08:35;;;;;;;8.85;6.57;;;6.80;99.90;;;;;;6097849;23;20617;-86
2020/12/26 04:11:01;;;;;;;7.68;6.93;;;6.80;99.90;;;;;;6050515;23;20233;-85
2020/12/26 04:13:30;;;;;;;7.78;6.75;;;6.80;99.90;;;;;;6097630;23;20185;-86
2020/12/26 04:15:57;;;;;;;9.07;6.65;;;6.80;99.90;;;;;;6098242;23;20593;-85
2020/12/26 04:18:23;;;;;;;7.33;6.47;;;6.80;99.90;;;;;;6097670;23;20167;-85
2020/12/26 04:20:49;;;;;;;7.57;5.87;;;6.80;99.90;;;;;;6074480;23;20630;-84
2020/12/26 04:23:15;;;;;;;6.75;5.93;;;6.80;99.90;;;;;;6098256;23;21095;-84
2020/12/26 04:25:41;;;;;;;7.20;6.50;;;6.80;99.90;;;;;;6098496;23;20230;-85
2020/12/26 04:28:07;;;;;;;6.83;6.13;;;6.80;99.90;;;;;;6074755;23;20543;-85
2020/12/26 04:30:33;;;;;;;6.35;5.85;;;6.80;99.90;;;;;;6074002;23;20202;-85
2020/12/26 04:32:59;;;;;;;7.37;6.47;;;6.80;99.90;;;;;;6074516;23;20513;-85
2020/12/26 04:35:25;;;;;;;20.83;6.97;;;6.90;99.90;;;;;;6097982;23;20154;-84
2020/12/26 04:37:51;;;;;;;10.33;6.47;;;6.90;99.90;;;;;;6099596;23;20657;-85
2020/12/26 04:40:17;;;;;;;7.65;6.07;;;6.90;99.90;;;;;;6115303;23;20187;-77
2020/12/26 04:42:43;;;;;;;6.60;6.00;;;6.90;99.90;;;;;;6129108;23;20150;-77
2020/12/26 04:45:09;;;;;;;9.00;6.68;;;6.90;99.90;;;;;;6146099;23;21310;-77
2020/12/26 04:48:07;;;;;;;8.23;6.28;;;6.90;99.90;;;;;;6146090;23;20497;-77
2020/12/26 04:50:34;;;;;;;6.95;6.22;;;6.90;99.90;;;;;;6081816;23;20182;-78
2020/12/26 04:53:03;;;;;;;7.72;7.00;;;7.00;99.90;;;;;;6094046;23;20204;-78
2020/12/26 04:55:34;;;;;;;8.38;7.43;;;7.00;99.90;;;;;;6093775;23;20226;-77
2020/12/26 04:58:10;;;;;;;6.78;6.00;;;7.00;99.90;;;;;;6068219;23;20264;-77
2020/12/26 05:00:37;;;;;;;7.47;6.75;;;7.00;99.90;;;;;;6093981;23;20190;-77
2020/12/26 05:03:06;;;;;;;7.50;6.25;;;7.00;99.90;;;;;;6094638;23;20144;-77
2020/12/26 05:05:37;;;;;;;6.65;5.82;;;7.00;99.90;;;;;;6094106;23;20144;-78
2020/12/26 05:08:07;;;;;;;8.70;6.13;;;7.00;99.90;;;;;;6092222;23;20152;-78
2020/12/26 05:10:34;;;;;;;7.53;6.65;;;7.00;99.90;;;;;;6091725;23;20240;-78
2020/12/26 05:13:01;;;;;;;8.73;5.95;;;7.00;99.90;;;;;;6092713;23;20159;-77
2020/12/26 05:15:29;;;;;;;6.28;5.68;;;7.00;99.90;;;;;;6094588;23;20178;-78
2020/12/26 05:17:56;;;;;;;7.23;5.97;;;7.00;99.90;;;;;;6094221;23;20611;-78
2020/12/26 05:20:23;;;;;;;6.00;5.50;;;7.00;99.90;;;;;;6097902;23;20167;-78
2020/12/26 05:23:12;;;;;;;7.03;6.43;;;7.00;99.90;;;;;;6092412;23;20224;-79
2020/12/26 05:25:42;;;;;;;10.48;6.85;;;7.00;99.90;;;;;;6092168;23;20621;-78
2020/12/26 05:28:42;;;;;;;9.60;7.00;;;7.00;99.90;;;;;;6091844;23;20226;-78
2020/12/26 05:31:10;;;;;;;7.40;6.60;;;7.00;99.90;;;;;;6093601;23;20222;-77
2020/12/26 05:33:39;;;;;;;8.20;6.65;;;7.00;99.90;;;;;;6093606;23;20253;-78
2020/12/26 05:36:05;;;;;;;8.93;7.40;;;7.00;99.90;;;;;;6068286;23;20203;-78
2020/12/26 05:38:31;;;;;;;10.40;7.32;;;7.00;99.90;;;;;;6095434;23;20232;-78
2020/12/26 05:41:00;;;;;;;8.77;7.87;;;7.00;99.90;;;;;;6122906;23;20134;-78
2020/12/26 05:43:30;;;;;;;9.52;8.63;;;7.10;99.90;;;;;;6123114;23;20155;-79
2020/12/26 05:45:57;;;;;;;11.30;10.07;;;7.10;99.90;;;;;;6123489;23;20227;-79
2020/12/26 05:48:25;;;;;;;11.07;9.98;;;7.10;99.90;;;;;;6096855;23;20498;-78
2020/12/26 05:50:57;;;;;;;18.33;10.45;;;7.10;99.90;;;;;;6097245;23;20478;-77
2020/12/26 05:53:28;;;;;;;12.60;11.10;;;7.10;99.90;;;;;;6097807;23;20238;-78
2020/12/26 05:55:55;;;;;;;13.50;11.55;;;7.10;99.90;;;;;;6125754;23;20198;-77
2020/12/26 05:58:24;;;;;;;12.38;11.23;;;7.10;99.90;;;;;;6124117;23;20143;-78
2020/12/26 06:00:51;;;;;;;14.63;12.32;;;7.10;99.90;;;;;;6097224;23;20182;-78
2020/12/26 06:03:30;;;;;;;13.20;11.00;;;7.00;99.90;;;;;;6123022;23;20209;-78
2020/12/26 06:06:00;;;;;;;11.95;10.35;;;7.00;99.90;;;;;;6123507;23;20159;-77
2020/12/26 06:08:29;;;;;;;14.80;12.18;;;7.00;99.90;;;;;;6097047;23;20140;-78
2020/12/26 06:11:04;;;;;;;13.57;12.18;;;7.00;99.90;;;;;;6096565;23;20223;-78
2020/12/26 06:13:35;;;;;;;12.32;10.43;;;7.00;99.90;;;;;;6121643;23;20174;-78
2020/12/26 06:16:09;;;;;;;12.30;10.88;;;7.00;99.90;;;;;;6121066;23;20182;-78
2020/12/26 06:18:40;;;;;;;11.35;10.25;;;7.00;99.90;;;;;;6120496;23;20254;-78
2020/12/26 06:21:07;;;;;;;13.10;10.15;;;7.10;99.90;;;;;;6123539;23;20123;-77
2020/12/26 06:23:38;;;;;;;10.75;9.63;;;7.10;99.90;;;;;;6100293;23;20229;-78
2020/12/26 06:26:04;;;;;;;10.70;9.60;;;7.10;99.90;;;;;;6076321;23;20665;-78
2020/12/26 06:28:34;;;;;;;10.18;8.77;;;7.10;99.90;;;;;;6124220;23;20185;-78
2020/12/26 06:31:05;;;;;;;11.25;9.18;;;7.10;99.90;;;;;;6126124;23;20206;-78
2020/12/26 06:33:38;;;;;;;10.63;8.90;;;7.10;99.90;;;;;;6130501;23;20139;-78
2020/12/26 06:36:05;;;;;;;10.30;9.40;;;7.10;99.90;;;;;;6125893;23;20241;-78
2020/12/26 06:38:34;;;;;;;9.50;8.60;;;7.10;99.90;;;;;;6099476;23;20170;-78
2020/12/26 06:41:01;;;;;;;10.02;8.10;;;7.10;99.90;;;;;;6125708;23;20167;-78
2020/12/26 06:43:42;;;;;;;10.48;9.38;;;7.10;99.90;;;;;;6099938;23;20154;-78
2020/12/26 06:46:28;;;;;;;9.23;7.72;;;7.10;99.90;;;;;;6125586;23;20154;-78
2020/12/26 06:48:58;;;;;;;9.98;8.23;;;7.10;99.90;;;;;;6114690;23;20178;-78
2020/12/26 06:51:32;;;;;;;10.07;8.30;;;7.10;99.90;;;;;;6125693;23;20147;-78
2020/12/26 06:54:03;;;;;;;9.77;7.78;;;7.10;99.90;;;;;;6126230;23;20709;-78
2020/12/26 06:56:34;;;;;;;9.48;8.43;;;7.20;99.90;;;;;;6126021;23;20167;-77
2020/12/26 06:59:11;;;;;;;10.13;9.10;;;7.20;99.90;;;;;;6099837;23;20617;-78
2020/12/26 07:01:45;;;;;;;9.77;8.80;;;7.20;99.90;;;;;;6124095;23;20135;-78
2020/12/26 07:04:19;;;;;;;10.15;9.15;;;7.10;99.90;;;;;;6125870;23;20178;-78
2020/12/26 07:06:46;;;;;;;8.82;7.97;;;7.10;99.90;;;;;;6125920;23;20170;-78
2020/12/26 07:09:14;;;;;;;8.63;7.82;;;7.10;99.90;;;;;;6125977;23;20174;-78
2020/12/26 07:11:51;;;;;;;10.70;9.48;;;7.10;99.90;;;;;;6128589;23;20493;-78
2020/12/26 07:14:31;;;;;;;9.52;7.88;;;7.10;99.90;;;;;;6126045;23;20188;-78
2020/12/26 07:17:04;;;;;;;8.82;7.90;;;7.00;99.90;;;;;;6125717;23;20174;-78
2020/12/26 07:19:32;;;;;;;9.50;8.57;;;7.00;99.90;;;;;;6099103;23;20255;-78
2020/12/26 07:22:02;;;;;;;10.15;8.32;;;7.00;99.90;;;;;;6125613;23;20147;-78
2020/12/26 07:24:35;;;;;;;8.80;7.90;;;7.00;99.90;;;;;;6126055;23;20215;-78
2020/12/26 07:27:14;;;;;;;9.25;7.78;;;7.00;99.90;;;;;;6100124;23;20151;-78
2020/12/26 07:29:55;;;;;;;8.50;7.60;;;6.90;99.90;;;;;;6125907;23;21080;-78
2020/12/26 07:32:38;;;;;;;8.18;7.32;;;6.90;99.90;;;;;;6125320;23;20166;-78
2020/12/26 07:35:03;;;;;;;7.97;7.15;;;6.90;99.90;;;;;;6124519;23;20230;-77
2020/12/26 07:37:29;;;;;;;7.40;6.33;;;6.90;99.90;;;;;;6098286;23;20183;-77
2020/12/26 07:39:55;;;;;;;7.30;6.50;;;6.80;99.90;;;;;;6124315;23;20179;-78
2020/12/26 07:42:22;;;;;;;7.40;6.60;;;6.80;99.90;;;;;;6124379;23;20147;-78
2020/12/26 07:44:48;;;;;;;7.18;6.47;;;6.80;99.90;;;;;;6098683;23;20522;-78
2020/12/26 07:47:15;;;;;;;8.75;5.90;;;6.80;99.90;;;;;;6125127;23;20147;-78
2020/12/26 07:49:41;;;;;;;13.43;6.22;;;6.80;99.90;;;;;;6127642;23;20245;-78
2020/12/26 07:52:09;;;;;;;6.83;6.20;;;6.80;99.90;;;;;;6124892;23;20151;-78
2020/12/26 07:54:35;;;;;;;5.53;5.13;;;6.80;99.90;;;;;;6124682;23;20218;-77
2020/12/26 07:57:02;;;;;;;6.38;5.35;;;6.80;99.90;;;;;;6124902;23;20203;-78
2020/12/26 07:59:28;;;;;;;7.28;5.78;;;6.70;99.90;;;;;;6073302;23;20167;-78
2020/12/26 08:01:56;;;;;;;5.25;4.55;;;6.70;99.90;;;;;;6098243;23;20153;-79
2020/12/26 08:04:23;;;;;;;5.50;5.00;;;6.60;99.90;;;;;;6125587;23;20151;-79
2020/12/26 08:06:50;;;;;;;6.20;5.70;;;6.60;99.90;;;;;;6125882;23;20546;-79
2020/12/26 08:09:17;;;;;;;5.22;4.72;;;6.50;99.90;;;;;;6097657;23;20621;-79
2020/12/26 08:11:44;;;;;;;4.90;4.50;;;6.50;99.90;;;;;;6122618;23;20242;-80
2020/12/26 08:14:13;;;;;;;4.72;4.32;;;6.50;99.90;;;;;;6099512;23;20150;-79
2020/12/26 08:16:40;;;;;;;4.97;4.47;;;6.40;99.90;;;;;;6100197;23;20366;-80
2020/12/26 08:19:05;;;;;;;5.72;3.90;;;6.30;99.90;;;;;;6125044;23;20198;-80
2020/12/26 08:21:32;;;;;;;6.47;4.23;;;6.30;99.90;;;;;;6129463;23;20151;-80
2020/12/26 08:24:03;;;;;;;6.45;4.47;;;6.30;99.90;;;;;;6100026;23;20512;-80
2020/12/26 08:26:31;;;;;;;5.57;4.93;;;6.20;99.90;;;;;;6129054;23;20143;-80
2020/12/26 08:29:03;;;;;;;4.88;4.22;;;6.20;99.90;;;;;;6123787;23;20175;-80
2020/12/26 08:31:31;;;;;;;9.05;4.20;;;6.20;99.90;;;;;;6123235;23;20219;-79
2020/12/26 08:34:07;;;;;;;6.80;5.47;;;6.20;99.90;;;;;;6122727;23;20158;-79
2020/12/26 08:36:38;;;;;;;5.65;4.00;;;6.20;99.90;;;;;;6050779;23;20181;-80
2020/12/26 08:39:10;;;;;;;4.95;3.78;;;6.10;99.90;;;;;;6077449;23;20505;-81
2020/12/26 08:45:46;;;;;;;3.97;3.55;;;6.10;99.90;;;;;;5973236;23;20153;-80
2020/12/26 08:48:32;;;;;;;4.25;3.85;;;6.10;99.90;;;;;;6032723;23;20243;-79
2020/12/26 08:51:26;;;;;;;5.20;4.38;;;6.10;99.90;;;;;;6063918;23;20166;-80
2020/12/26 08:54:02;;;;;;;4.38;3.03;;;6.20;99.90;;;;;;6074212;23;20155;-80
2020/12/26 08:56:50;;;;;;;4.60;4.28;;;6.20;99.90;;;;;;6082033;23;20206;-79
2020/12/26 08:59:30;;;;;;;3.05;2.75;;;6.20;99.90;;;;;;6097132;23;20318;-80
2020/12/26 09:02:24;;;;;;;4.78;4.38;;;6.20;99.90;;;;;;6080757;23;20166;-79
2020/12/26 09:04:50;;;;;;;6.82;3.35;;;6.30;99.90;;;;;;6073211;23;20147;-79
2020/12/26 09:07:20;;;;;;;3.43;3.13;;;6.30;99.90;;;;;;6072805;23;20166;-80
2020/12/26 09:09:52;;;;;;;3.13;2.83;;;6.40;99.90;;;;;;6073200;23;20618;-79
2020/12/26 09:12:23;;;;;;;4.97;2.67;;;6.40;99.90;;;;;;6097180;23;20154;-80
2020/12/26 09:15:13;;;;;;;2.97;2.78;;;6.40;99.90;;;;;;6076516;23;20606;-79
2020/12/26 09:17:54;;;;;;;4.18;2.60;;;6.50;99.90;;;;;;6096865;23;20254;-80
2020/12/26 09:20:59;;;;;;;3.45;2.92;;;6.50;99.90;;;;;;6073028;23;20151;-79
2020/12/26 09:23:53;;;;;;;3.92;3.40;;;6.60;99.90;;;;;;6074626;23;20534;-79
2020/12/26 09:26:37;;;;;;;4.82;3.13;;;6.60;99.90;;;;;;6049695;23;20236;-79
2020/12/26 09:29:32;;;;;;;4.13;3.38;;;6.60;99.90;;;;;;6099284;23;20206;-79
2020/12/26 09:32:08;;;;;;;3.55;3.15;;;6.70;99.90;;;;;;6054845;23;20161;-79
2020/12/26 09:34:36;;;;;;;2.85;2.53;;;6.80;99.90;;;;;;6076470;23;20234;-79
2020/12/26 09:37:09;;;;;;;3.08;2.78;;;6.80;99.90;;;;;;6123895;23;20170;-80
2020/12/26 09:39:36;;;;;;;3.60;3.30;;;6.90;99.90;;;;;;6129193;23;20182;-79
2020/12/26 09:42:02;;;;;;;4.28;2.40;;;6.90;99.90;;;;;;6096904;23;20577;-79
2020/12/26 09:44:28;;;;;;;3.38;1.90;;;7.00;99.90;;;;;;6097708;23;20197;-78
2020/12/26 09:47:06;;;;;;;4.17;2.97;;;7.10;99.90;;;;;;6123388;23;20500;-78
2020/12/26 09:49:32;;;;;;;5.50;2.92;;;7.10;99.90;;;;;;6096697;23;20574;-78
2020/12/26 09:51:57;;;;;;;3.07;2.10;;;7.10;99.90;;;;;;6097243;23;20157;-78
2020/12/26 09:54:23;;;;;;;3.27;2.47;;;7.20;99.90;;;;;;6121383;23;20542;-79
2020/12/26 09:56:49;;;;;;;3.30;2.17;;;7.20;99.90;;;;;;6098120;23;20665;-80
2020/12/26 09:59:15;;;;;;;3.50;2.50;;;7.30;99.90;;;;;;6072669;23;20866;-80
2020/12/26 10:01:41;;;;;;;4.00;3.07;;;7.30;99.90;;;;;;6096772;23;20558;-79
2020/12/26 10:04:07;;;;;;;3.73;2.97;;;7.40;99.90;;;;;;6072942;23;20555;-79
2020/12/26 10:06:33;;;;;;;3.03;2.10;;;7.40;99.90;;;;;;6097137;23;20535;-80
2020/12/26 10:08:59;;;;;;;3.67;2.70;;;7.60;99.90;;;;;;6095947;23;21179;-79
2020/12/26 10:11:25;;;;;;;3.57;2.70;;;7.70;99.90;;;;;;6122487;23;20539;-80
2020/12/26 10:13:50;;;;;;;3.53;2.50;;;7.80;99.90;;;;;;6123296;23;20614;-81
2020/12/26 10:16:21;;;;;;;2.73;2.50;;;7.90;99.90;;;;;;6127522;23;20579;-82
2020/12/26 10:18:47;;;;;;;3.75;3.45;;;8.10;99.90;;;;;;6099606;23;20577;-81
2020/12/26 10:21:17;;;;;;;5.33;3.63;;;8.20;99.90;;;;;;6097391;23;20622;-80
2020/12/26 10:23:44;;;;;;;4.93;2.95;;;8.30;99.90;;;;;;6098472;23;20534;-81
2020/12/26 10:26:10;;;;;;;5.15;2.47;;;8.40;99.90;;;;;;6122798;23;20179;-81
2020/12/26 10:28:36;;;;;;;3.40;2.23;;;8.50;99.90;;;;;;6118595;23;20155;-79
2020/12/26 10:31:02;;;;;;;3.00;2.07;;;8.60;99.90;;;;;;6095666;23;20607;-80
2020/12/26 10:33:29;;;;;;;2.33;2.13;;;8.70;99.90;;;;;;6097645;23;20179;-79
2020/12/26 10:35:55;;;;;;;2.35;2.15;;;8.70;99.90;;;;;;6121444;23;20226;-80
2020/12/26 10:38:22;;;;;;;2.50;2.30;;;8.80;99.90;;;;;;6120123;23;20613;-78
2020/12/26 10:40:48;;;;;;;4.67;2.30;;;8.90;99.90;;;;;;6132679;23;20281;-77
2020/12/26 10:43:15;;;;;;;3.10;2.25;;;8.90;99.90;;;;;;6133739;23;20550;-79
2020/12/26 10:45:42;;;;;;;5.15;2.78;;;9.00;99.90;;;;;;6161402;23;20143;-80
2020/12/26 10:48:08;;;;;;;3.60;2.20;;;9.00;99.90;;;;;;6111556;23;20619;-79
2020/12/26 10:50:34;;;;;;;2.40;1.80;;;9.00;99.90;;;;;;6136417;23;20166;-77
2020/12/26 10:53:03;;;;;;;3.20;2.10;;;9.00;99.90;;;;;;6113202;23;20164;-80
2020/12/26 10:55:29;;;;;;;2.30;2.00;;;9.10;99.90;;;;;;6145800;23;20557;-79
2020/12/26 10:57:58;;;;;;;1.80;1.40;;;9.10;99.90;;;;;;6149007;23;20178;-80
2020/12/26 11:00:23;;;;;;;2.40;1.20;;;9.10;99.90;;;;;;6122855;23;20150;-79
2020/12/26 11:02:49;;;;;;;3.37;1.60;;;9.00;99.90;;;;;;6124731;23;20158;-79
2020/12/26 11:05:18;;;;;;;2.77;2.17;;;9.00;99.90;;;;;;6124494;23;20546;-80
2020/12/26 11:07:44;;;;;;;2.67;1.70;;;8.90;99.90;;;;;;6147616;23;20618;-81
2020/12/26 11:10:10;;;;;;;3.63;2.07;;;8.90;99.90;;;;;;6142111;23;20147;-81
2020/12/26 11:12:38;;;;;;;3.00;1.57;;;8.80;99.90;;;;;;6141468;23;20518;-80
2020/12/26 11:15:06;;;;;;;2.28;1.20;;;8.70;99.90;;;;;;6147623;23;20518;-80
2020/12/26 11:17:34;;;;;;;2.60;1.25;;;8.70;99.90;;;;;;6137093;23;20628;-80
2020/12/26 11:20:03;;;;;;;2.58;1.30;;;8.60;99.90;;;;;;6134990;23;20142;-80
2020/12/26 11:22:29;;;;;;;2.20;1.30;;;8.60;99.90;;;;;;6134469;23;20177;-80
2020/12/26 11:24:57;;;;;;;1.60;1.20;;;8.50;99.90;;;;;;6110428;23;20154;-81
2020/12/26 11:27:25;;;;;;;1.85;1.00;;;8.50;99.90;;;;;;6134515;23;20131;-81
2020/12/26 11:29:53;;;;;;;2.60;1.90;;;8.50;99.90;;;;;;6134355;23;20151;-82
2020/12/26 11:32:20;;;;;;;2.33;1.10;;;8.60;99.90;;;;;;6134524;23;20562;-81
2020/12/26 11:34:51;;;;;;;1.90;1.10;;;8.70;99.90;;;;;;6133391;23;20165;-81
2020/12/26 11:37:45;;;;;;;2.45;1.08;;;8.70;99.90;;;;;;6112955;23;20169;-81
2020/12/26 11:40:13;;;;;;;1.45;0.90;;;8.80;99.90;;;;;;6134377;23;20130;-82
2020/12/26 11:42:40;;;;;;;2.45;1.02;;;8.80;99.90;;;;;;6108202;23;20162;-81
2020/12/26 11:45:14;;;;;;;4.18;1.00;;;8.90;99.90;;;;;;6109064;23;20143;-80
2020/12/26 11:47:42;;;;;;;3.17;1.60;;;8.90;99.90;;;;;;6085407;23;20147;-81
2020/12/26 11:50:14;;;;;;;1.85;1.20;;;9.00;99.90;;;;;;6159101;23;20205;-81
2020/12/26 11:52:58;;;;;;;1.90;0.93;;;9.00;99.90;;;;;;6133049;23;20154;-80
2020/12/26 11:55:30;;;;;;;2.55;0.90;;;9.00;99.90;;;;;;6159581;23;20524;-80
2020/12/26 11:57:56;;;;;;;1.90;0.95;;;9.10;99.90;;;;;;6132566;23;20182;-81
2020/12/26 12:00:22;;;;;;;2.87;0.90;;;9.10;99.90;;;;;;6133096;23;20475;-80
2020/12/26 12:02:50;;;;;;;2.58;0.80;;;9.10;99.90;;;;;;6108345;23;20562;-79
2020/12/26 12:05:16;;;;;;;2.15;0.75;;;9.10;99.90;;;;;;6159088;23;20143;-79
2020/12/26 12:07:42;;;;;;;2.03;0.90;;;9.20;99.90;;;;;;6132994;23;20157;-79
2020/12/26 12:10:08;;;;;;;5.68;1.10;;;9.30;99.90;;;;;;6132761;23;20154;-79
2020/12/26 12:12:34;;;;;;;1.57;0.80;;;9.30;99.90;;;;;;6158915;23;20208;-81
2020/12/26 12:15:00;;;;;;;1.20;0.70;;;9.40;99.90;;;;;;6133676;23;20529;-80
2020/12/26 12:17:26;;;;;;;1.73;0.60;;;9.40;99.90;;;;;;6132385;23;21241;-80
2020/12/26 12:19:54;;;;;;;3.95;2.20;;;9.40;99.90;;;;;;6132719;23;21117;-80
2020/12/26 12:22:20;;;;;;;7.53;3.27;;;9.40;99.90;;;;;;6133541;23;20166;-80
2020/12/26 12:24:48;;;;;;;5.57;1.70;;;9.40;99.90;;;;;;6159674;23;20153;-80
2020/12/26 12:27:14;;;;;;;2.10;0.90;;;9.40;99.90;;;;;;6132092;23;20522;-80
2020/12/26 12:29:42;;;;;;;1.92;1.35;;;9.40;99.90;;;;;;6131932;23;20426;-80
2020/12/26 12:32:14;;;;;;;2.47;0.80;;;9.40;99.90;;;;;;6132276;23;20180;-80
2020/12/26 12:34:41;;;;;;;1.58;0.70;;;9.40;99.90;;;;;;6132375;23;20131;-79
2020/12/26 12:37:13;;;;;;;1.80;0.70;;;9.40;99.90;;;;;;6132544;23;20975;-80
2020/12/26 12:39:41;;;;;;;1.05;0.60;;;9.50;99.90;;;;;;6108131;23;20234;-80
2020/12/26 12:42:09;;;;;;;2.53;1.00;;;9.50;99.90;;;;;;6126929;23;20187;-80
2020/12/26 12:44:43;;;;;;;1.35;0.68;;;9.50;99.90;;;;;;6104746;23;20151;-80
2020/12/26 12:47:38;;;;;;;1.45;0.70;;;9.50;99.90;;;;;;6107528;23;20221;-80
2020/12/26 12:50:24;;;;;;;2.05;0.70;;;9.50;99.90;;;;;;6127661;23;20163;-80
2020/12/26 12:53:03;;;;;;;1.45;0.50;;;9.50;99.90;;;;;;6127817;23;20185;-80
2020/12/26 12:55:49;;;;;;;1.77;0.50;;;9.50;99.90;;;;;;6105330;23;20222;-80
2020/12/26 12:58:20;;;;;;;1.30;0.60;;;9.40;99.90;;;;;;6128053;23;20189;-80
2020/12/26 13:00:56;;;;;;;1.75;0.70;;;9.40;99.90;;;;;;6127457;23;20206;-80
2020/12/26 13:03:25;;;;;;;1.40;0.60;;;9.40;99.90;;;;;;6129757;23;20143;-80
2020/12/26 13:05:54;;;;;;;1.40;0.60;;;9.30;99.90;;;;;;6104003;23;20151;-80
2020/12/26 13:08:20;;;;;;;2.00;0.60;;;9.40;99.90;;;;;;6102917;23;20238;-80
2020/12/26 13:10:46;;;;;;;2.40;0.70;;;9.40;99.90;;;;;;6102506;23;20174;-80
2020/12/26 13:13:13;;;;;;;1.80;0.70;;;9.50;99.90;;;;;;6129028;23;20597;-81
2020/12/26 13:15:42;;;;;;;1.20;0.70;;;9.50;99.90;;;;;;6128841;23;20147;-79